Time;durP1;ratioP1;P1;durP2;ratioP2;P2;SDS_P1;SDS_P2;PMS_P1;PMS_P2;Temp;Humidity;BMP_temperature;BMP_pressure;BME280_temperature;BME280_humidity;BME280_pressure;Samples;Min_cycle;Max_cycle;Signal;HPM_P1;HPM_P2
2021/11/14 00:00:38;;;;;;;;;;;25.70;42.00;;;;;;5058167;28;19912;-82
2021/11/14 00:03:04;;;;;;;;;;;25.80;42.10;;;;;;5057782;28;19924;-79
2021/11/14 00:05:29;;;;;;;;;;;25.80;42.10;;;;;;5057822;28;19909;-81
2021/11/14 00:07:55;;;;;;;;;;;25.70;42.00;;;;;;5058133;28;19916;-80
2021/11/14 00:10:23;;;;;;;;;;;25.80;42.10;;;;;;5057864;28;20357;-80
2021/11/14 00:12:48;;;;;;;;;;;25.80;42.10;;;;;;5057763;28;19934;-81
2021/11/14 00:15:14;;;;;;;;;;;25.80;42.10;;;;;;5058083;28;20396;-82
2021/11/14 00:17:42;;;;;;;;;;;25.80;42.10;;;;;;5075432;28;19913;-78
2021/11/14 00:20:08;;;;;;;;;;;25.70;42.00;;;;;;5057852;28;19909;-79
2021/11/14 00:22:36;;;;;;;;;;;25.80;42.10;;;;;;5057799;28;20362;-80
2021/11/14 00:25:03;;;;;;;;;;;25.80;42.10;;;;;;5057748;28;19909;-80
2021/11/14 00:27:28;;;;;;;;;;;25.80;42.10;;;;;;5040988;28;19940;-82
2021/11/14 00:29:54;;;;;;;;;;;25.80;42.10;;;;;;5022633;28;19963;-81
2021/11/14 00:32:19;;;;;;;;;;;25.70;42.00;;;;;;5034415;28;19971;-80
2021/11/14 00:34:48;;;;;;;;;;;25.70;42.00;;;;;;5017807;28;19920;-82
2021/11/14 00:37:13;;;;;;;;;;;25.70;42.00;;;;;;5018188;28;20196;-80
2021/11/14 00:39:39;;;;;;;;;;;25.70;42.00;;;;;;5017763;28;19916;-83
2021/11/14 00:42:04;;;;;;;;;;;25.70;42.00;;;;;;5034167;28;20368;-82
2021/11/14 00:44:30;;;;;;;;;;;25.70;42.00;;;;;;5017441;28;20361;-80
2021/11/14 00:46:56;;;;;;;;;;;25.70;42.00;;;;;;5018427;28;19979;-80
2021/11/14 00:49:21;;;;;;;;;;;25.70;42.00;;;;;;5018063;28;20004;-79
2021/11/14 00:51:49;;;;;;;;;;;25.80;42.10;;;;;;5018420;28;19955;-82
2021/11/14 00:54:15;;;;;;;;;;;25.70;42.00;;;;;;5019690;28;19983;-77
2021/11/14 00:56:43;;;;;;;;;;;25.80;42.10;;;;;;5038196;28;19917;-80
2021/11/14 00:59:11;;;;;;;;;;;25.80;42.10;;;;;;5038444;28;19910;-79
2021/11/14 01:01:36;;;;;;;;;;;25.70;42.00;;;;;;5021503;28;19921;-79
2021/11/14 01:04:02;;;;;;;;;;;25.70;42.00;;;;;;5021958;28;19909;-80
2021/11/14 01:06:27;;;;;;;;;;;25.80;42.10;;;;;;5037997;28;19909;-82
2021/11/14 01:08:53;;;;;;;;;;;25.70;42.00;;;;;;5037926;28;20278;-79
2021/11/14 01:11:18;;;;;;;;;;;25.80;42.10;;;;;;5021297;28;20350;-78
2021/11/14 01:13:44;;;;;;;;;;;25.70;42.00;;;;;;5021378;28;20008;-78
2021/11/14 01:16:12;;;;;;;;;;;25.80;42.10;;;;;;5037932;28;20219;-82
2021/11/14 01:18:40;;;;;;;;;;;25.70;42.00;;;;;;5037760;28;19948;-79
2021/11/14 01:21:09;;;;;;;;;;;25.70;42.00;;;;;;5037486;28;19999;-78
2021/11/14 01:23:37;;;;;;;;;;;25.70;42.00;;;;;;5021166;28;19909;-81
2021/11/14 01:26:03;;;;;;;;;;;25.70;42.00;;;;;;5037680;28;19956;-78
2021/11/14 01:28:28;;;;;;;;;;;25.70;42.00;;;;;;5021350;28;19929;-80
2021/11/14 01:30:54;;;;;;;;;;;25.70;42.00;;;;;;5054153;28;19909;-81
2021/11/14 01:33:21;;;;;;;;;;;25.70;42.00;;;;;;5054273;28;19917;-81
2021/11/14 01:35:46;;;;;;;;;;;25.70;42.00;;;;;;5054161;28;20006;-80
2021/11/14 01:38:12;;;;;;;;;;;25.70;42.00;;;;;;5054342;28;20370;-81
2021/11/14 01:40:40;;;;;;;;;;;25.70;42.00;;;;;;5054452;28;19909;-83
2021/11/14 01:43:06;;;;;;;;;;;25.70;42.00;;;;;;5054142;28;19987;-81
2021/11/14 01:45:32;;;;;;;;;;;25.70;42.00;;;;;;5054024;28;19909;-80
2021/11/14 01:47:58;;;;;;;;;;;25.70;42.00;;;;;;5054231;28;20250;-79
2021/11/14 01:50:23;;;;;;;;;;;25.70;42.00;;;;;;5053901;28;19913;-81
2021/11/14 01:52:54;;;;;;;;;;;25.70;42.00;;;;;;5053645;28;19913;-81
2021/11/14 01:55:23;;;;;;;;;;;25.70;42.00;;;;;;5053833;28;19963;-80
2021/11/14 01:57:49;;;;;;;;;;;25.70;42.00;;;;;;5053908;28;19909;-81
2021/11/14 02:00:17;;;;;;;;;;;25.70;42.00;;;;;;5053728;28;20016;-78
2021/11/14 02:02:45;;;;;;;;;;;25.70;42.00;;;;;;5053256;28;20272;-79
2021/11/14 02:05:13;;;;;;;;;;;25.70;42.00;;;;;;5053170;28;19909;-78
2021/11/14 02:07:41;;;;;;;;;;;25.70;42.00;;;;;;5036775;28;19916;-79
2021/11/14 02:10:07;;;;;;;;;;;25.70;42.00;;;;;;5053072;28;20353;-80
2021/11/14 02:12:35;;;;;;;;;;;25.70;42.00;;;;;;5053484;28;20188;-81
2021/11/14 02:15:00;;;;;;;;;;;25.70;42.00;;;;;;5053227;28;19920;-79
2021/11/14 02:17:31;;;;;;;;;;;25.70;42.00;;;;;;5053287;28;19909;-78
2021/11/14 02:19:56;;;;;;;;;;;25.70;42.00;;;;;;5053117;28;19909;-82
2021/11/14 02:22:24;;;;;;;;;;;25.70;42.00;;;;;;5053227;28;19916;-80
2021/11/14 02:24:52;;;;;;;;;;;25.70;42.00;;;;;;5053240;28;19917;-78
2021/11/14 02:27:18;;;;;;;;;;;25.70;42.00;;;;;;5052889;28;19909;-82
2021/11/14 02:29:43;;;;;;;;;;;25.70;42.00;;;;;;5042555;28;20023;-80
2021/11/14 02:32:09;;;;;;;;;;;25.70;42.00;;;;;;5019949;28;19910;-80
2021/11/14 02:34:37;;;;;;;;;;;25.70;42.00;;;;;;5019853;28;19909;-80
2021/11/14 02:37:05;;;;;;;;;;;25.70;42.60;;;;;;5019839;28;19916;-82
2021/11/14 02:39:33;;;;;;;;;;;25.70;42.00;;;;;;5036038;28;19909;-81
2021/11/14 02:41:59;;;;;;;;;;;25.70;42.00;;;;;;5036066;28;19913;-79
2021/11/14 02:44:25;;;;;;;;;;;25.80;42.10;;;;;;5019474;28;19909;-78
2021/11/14 02:46:50;;;;;;;;;;;25.80;42.10;;;;;;5036180;28;19920;-81
2021/11/14 02:49:16;;;;;;;;;;;25.70;42.00;;;;;;5019880;28;19920;-81
2021/11/14 02:51:44;;;;;;;;;;;25.80;42.10;;;;;;5019685;28;20219;-82
2021/11/14 02:54:09;;;;;;;;;;;25.80;42.10;;;;;;5019949;28;19910;-76
2021/11/14 02:56:37;;;;;;;;;;;25.70;42.00;;;;;;5019549;28;19920;-80
2021/11/14 02:59:03;;;;;;;;;;;25.80;42.10;;;;;;5019853;28;19924;-83
2021/11/14 03:01:34;;;;;;;;;;;25.80;42.10;;;;;;5036043;28;19913;-82
2021/11/14 03:03:59;;;;;;;;;;;25.70;42.00;;;;;;5019342;28;19941;-80
2021/11/14 03:06:25;;;;;;;;;;;25.70;42.10;;;;;;5035654;28;19909;-78
2021/11/14 03:08:51;;;;;;;;;;;25.70;42.10;;;;;;5019113;28;19921;-80
2021/11/14 03:11:18;;;;;;;;;;;25.80;42.20;;;;;;5018960;28;19910;-82
2021/11/14 03:13:43;;;;;;;;;;;25.80;42.20;;;;;;5019142;28;19917;-80
2021/11/14 03:16:09;;;;;;;;;;;25.80;42.20;;;;;;5034731;28;19920;-79
2021/11/14 03:18:37;;;;;;;;;;;25.80;42.20;;;;;;5019460;28;19976;-80
2021/11/14 03:21:03;;;;;;;;;;;25.80;42.10;;;;;;5019069;28;19913;-80
2021/11/14 03:23:29;;;;;;;;;;;25.80;42.10;;;;;;5019128;28;19909;-81
2021/11/14 03:25:57;;;;;;;;;;;25.80;42.10;;;;;;5019207;28;19919;-80
2021/11/14 03:28:22;;;;;;;;;;;25.80;42.10;;;;;;5024357;28;19913;-80
2021/11/14 03:30:52;;;;;;;;;;;25.80;42.20;;;;;;5058547;28;19919;-81
2021/11/14 03:33:17;;;;;;;;;;;25.80;42.20;;;;;;5041926;28;19999;-82
2021/11/14 03:35:46;;;;;;;;;;;25.80;42.20;;;;;;5058619;28;20523;-81
2021/11/14 03:38:12;;;;;;;;;;;25.70;42.10;;;;;;5076016;28;19919;-81
2021/11/14 03:40:40;;;;;;;;;;;25.80;42.20;;;;;;5058354;28;19909;-81
2021/11/14 03:43:05;;;;;;;;;;;25.80;42.30;;;;;;5058472;28;19982;-79
2021/11/14 03:45:31;;;;;;;;;;;25.70;42.20;;;;;;5058197;28;20385;-82
2021/11/14 03:47:59;;;;;;;;;;;25.80;42.30;;;;;;5058818;28;19919;-80
2021/11/14 03:50:30;;;;;;;;;;;25.70;42.20;;;;;;5058866;28;19908;-81
2021/11/14 03:52:55;;;;;;;;;;;25.80;42.30;;;;;;5058975;28;19909;-83
2021/11/14 03:55:21;;;;;;;;;;;25.70;42.20;;;;;;5058687;28;19920;-80
2021/11/14 03:57:46;;;;;;;;;;;25.70;42.10;;;;;;5058582;28;19909;-79
2021/11/14 04:00:14;;;;;;;;;;;25.80;42.30;;;;;;5058322;28;19970;-82
2021/11/14 04:02:42;;;;;;;;;;;25.80;42.30;;;;;;5058444;28;19923;-78
2021/11/14 04:05:08;;;;;;;;;;;25.70;42.20;;;;;;5057902;28;19908;-79
2021/11/14 04:07:33;;;;;;;;;;;25.80;42.30;;;;;;5075562;28;20293;-79
2021/11/14 04:09:59;;;;;;;;;;;25.80;42.20;;;;;;5041422;28;20007;-80
2021/11/14 04:12:24;;;;;;;;;;;25.80;42.20;;;;;;5058129;28;19915;-79
2021/11/14 04:14:50;;;;;;;;;;;25.80;42.20;;;;;;5057970;28;19908;-79
2021/11/14 04:17:15;;;;;;;;;;;25.80;42.20;;;;;;5041333;28;19909;-79
2021/11/14 04:19:41;;;;;;;;;;;25.80;42.20;;;;;;5057728;28;19909;-79
2021/11/14 04:22:11;;;;;;;;;;;25.80;42.20;;;;;;5057541;28;19920;-79
2021/11/14 04:24:37;;;;;;;;;;;25.80;42.20;;;;;;5041202;28;19908;-78
2021/11/14 04:27:02;;;;;;;;;;;25.80;42.20;;;;;;5057343;28;20329;-80
2021/11/14 04:29:28;;;;;;;;;;;25.80;42.30;;;;;;5057284;28;20384;-77
2021/11/14 04:31:53;;;;;;;;;;;25.80;42.30;;;;;;5057530;28;20332;-81
2021/11/14 04:34:19;;;;;;;;;;;25.80;42.30;;;;;;5041126;28;19974;-79
2021/11/14 04:36:47;;;;;;;;;;;25.80;42.30;;;;;;5057827;28;19956;-79
2021/11/14 04:39:12;;;;;;;;;;;25.80;42.30;;;;;;5058203;28;19908;-79
2021/11/14 04:41:38;;;;;;;;;;;25.80;42.30;;;;;;5057509;28;20011;-79
2021/11/14 04:44:03;;;;;;;;;;;25.80;42.30;;;;;;5057740;28;19984;-80
2021/11/14 04:46:29;;;;;;;;;;;25.80;42.30;;;;;;5057606;28;19908;-79
2021/11/14 04:48:59;;;;;;;;;;;25.80;42.30;;;;;;5057483;28;19912;-78
2021/11/14 04:51:27;;;;;;;;;;;25.80;42.30;;;;;;5057716;28;19916;-80
2021/11/14 04:53:53;;;;;;;;;;;25.80;42.30;;;;;;5057425;28;19959;-79
2021/11/14 04:56:18;;;;;;;;;;;25.80;42.40;;;;;;5057177;28;20329;-79
2021/11/14 04:58:46;;;;;;;;;;;25.80;42.30;;;;;;5057323;28;19908;-79
2021/11/14 05:01:12;;;;;;;;;;;25.80;42.30;;;;;;5057448;28;20057;-81
2021/11/14 05:03:37;;;;;;;;;;;25.80;42.20;;;;;;5040773;28;20399;-81
2021/11/14 05:06:09;;;;;;;;;;;25.80;42.30;;;;;;5057362;28;19999;-77
2021/11/14 05:08:37;;;;;;;;;;;25.80;42.20;;;;;;5058025;28;20340;-79
2021/11/14 05:11:02;;;;;;;;;;;25.80;42.30;;;;;;5057051;28;19962;-78
2021/11/14 05:13:28;;;;;;;;;;;25.80;42.30;;;;;;5074922;28;19948;-78
2021/11/14 05:15:53;;;;;;;;;;;25.80;42.30;;;;;;5075008;28;19913;-79
2021/11/14 05:18:21;;;;;;;;;;;25.80;42.30;;;;;;5057138;28;20396;-81
2021/11/14 05:20:47;;;;;;;;;;;25.80;42.30;;;;;;5040516;28;20325;-81
2021/11/14 05:23:16;;;;;;;;;;;25.80;42.30;;;;;;5056972;28;19912;-82
2021/11/14 05:25:43;;;;;;;;;;;25.80;42.30;;;;;;5040955;28;19940;-81
2021/11/14 05:28:09;;;;;;;;;;;25.80;42.30;;;;;;5056959;28;19912;-79
2021/11/14 05:30:35;;;;;;;;;;;25.80;42.30;;;;;;5057182;28;19930;-80
2021/11/14 05:33:01;;;;;;;;;;;25.80;42.30;;;;;;5056968;28;19909;-79
2021/11/14 05:35:26;;;;;;;;;;;25.80;42.30;;;;;;5040503;28;19908;-79
2021/11/14 05:37:52;;;;;;;;;;;25.80;42.30;;;;;;5040753;28;19908;-80
2021/11/14 05:40:17;;;;;;;;;;;25.80;42.40;;;;;;5058794;28;19908;-80
2021/11/14 05:42:45;;;;;;;;;;;25.80;42.30;;;;;;5043834;28;20337;-82
2021/11/14 05:45:11;;;;;;;;;;;25.80;42.30;;;;;;5044793;28;19909;-78
2021/11/14 05:47:36;;;;;;;;;;;25.80;42.30;;;;;;5060568;28;19957;-79
2021/11/14 05:50:05;;;;;;;;;;;25.80;42.30;;;;;;5060266;28;19908;-78
2021/11/14 05:52:30;;;;;;;;;;;25.90;42.40;;;;;;5060842;28;19995;-77
2021/11/14 05:54:56;;;;;;;;;;;25.80;42.30;;;;;;5060098;28;19966;-80
2021/11/14 05:57:27;;;;;;;;;;;25.80;42.30;;;;;;5060105;28;19952;-81
2021/11/14 06:02:35;;;;;;;;;;;25.80;42.30;;;;;;5061038;28;20344;-80
2021/11/14 06:05:18;;;;;;;;;;;25.80;42.30;;;;;;5062381;28;19908;-85
2021/11/14 06:07:44;;;;;;;;;;;25.80;42.40;;;;;;5063130;28;19966;-85
2021/11/14 06:10:14;;;;;;;;;;;25.80;42.30;;;;;;5060296;28;19909;-79
2021/11/14 06:12:40;;;;;;;;;;;25.80;42.40;;;;;;5044259;28;19909;-78
2021/11/14 06:15:09;;;;;;;;;;;25.90;42.40;;;;;;5060151;28;20402;-80
2021/11/14 06:17:37;;;;;;;;;;;25.80;42.40;;;;;;5060412;28;20268;-81
2021/11/14 06:20:03;;;;;;;;;;;25.80;42.30;;;;;;5060281;28;19909;-80
2021/11/14 06:22:31;;;;;;;;;;;25.80;42.40;;;;;;5059715;28;19952;-79
2021/11/14 06:24:59;;;;;;;;;;;25.80;42.40;;;;;;5060252;28;19916;-83
2021/11/14 06:27:27;;;;;;;;;;;25.80;42.40;;;;;;5060461;28;20080;-78
2021/11/14 06:29:55;;;;;;;;;;;25.80;42.40;;;;;;5060464;28;19970;-81
2021/11/14 06:32:23;;;;;;;;;;;25.90;42.50;;;;;;5059586;28;19909;-78
2021/11/14 06:34:51;;;;;;;;;;;25.90;42.50;;;;;;5059940;28;19908;-81
2021/11/14 06:37:16;;;;;;;;;;;25.90;42.40;;;;;;5059582;28;19962;-80
2021/11/14 06:39:42;;;;;;;;;;;25.90;42.40;;;;;;5043097;28;19909;-82
2021/11/14 06:42:10;;;;;;;;;;;25.80;42.30;;;;;;5059896;28;19920;-85
2021/11/14 06:44:38;;;;;;;;;;;25.80;42.30;;;;;;5060051;28;19908;-82
2021/11/14 06:47:08;;;;;;;;;;;25.90;42.40;;;;;;5060007;28;19924;-83
2021/11/14 06:49:34;;;;;;;;;;;25.80;42.30;;;;;;5059921;28;19920;-79
2021/11/14 06:52:02;;;;;;;;;;;25.90;42.40;;;;;;5058731;28;19908;-79
2021/11/14 06:54:27;;;;;;;;;;;25.90;42.40;;;;;;5059295;28;20022;-80
2021/11/14 06:56:53;;;;;;;;;;;25.80;42.40;;;;;;5042862;28;20377;-79
2021/11/14 06:59:18;;;;;;;;;;;25.90;42.40;;;;;;5059052;28;20337;-80
2021/11/14 07:01:49;;;;;;;;;;;25.80;42.40;;;;;;5059291;28;19939;-78
2021/11/14 07:04:14;;;;;;;;;;;25.80;42.40;;;;;;5059329;28;19909;-81
2021/11/14 07:06:40;;;;;;;;;;;25.80;42.40;;;;;;5058864;28;19920;-81
2021/11/14 07:09:08;;;;;;;;;;;25.80;42.40;;;;;;5058876;28;19909;-80
2021/11/14 07:11:39;;;;;;;;;;;25.80;42.40;;;;;;5058789;28;20053;-79
2021/11/14 07:14:05;;;;;;;;;;;25.80;42.40;;;;;;5059101;28;19919;-81
2021/11/14 07:16:33;;;;;;;;;;;25.80;42.40;;;;;;5058663;28;20228;-80
2021/11/14 07:18:58;;;;;;;;;;;25.80;42.40;;;;;;5059027;28;19919;-82
2021/11/14 07:21:24;;;;;;;;;;;25.90;42.50;;;;;;5058689;28;19991;-81
2021/11/14 07:23:54;;;;;;;;;;;25.90;42.40;;;;;;5059133;28;20003;-81
2021/11/14 07:26:20;;;;;;;;;;;25.90;42.40;;;;;;5059397;28;19908;-79
2021/11/14 07:28:48;;;;;;;;;;;25.90;42.40;;;;;;5041741;28;19931;-81
2021/11/14 07:31:14;;;;;;;;;;;25.90;42.40;;;;;;5058915;28;19912;-81
2021/11/14 07:33:39;;;;;;;;;;;25.90;42.40;;;;;;5058540;28;19909;-80
2021/11/14 07:36:05;;;;;;;;;;;25.90;42.40;;;;;;5058292;28;19969;-81
2021/11/14 07:38:32;;;;;;;;;;;25.90;42.50;;;;;;5058574;28;19916;-81
2021/11/14 07:41:00;;;;;;;;;;;25.90;42.50;;;;;;5058673;28;19924;-82
2021/11/14 07:43:28;;;;;;;;;;;25.90;42.50;;;;;;5058570;28;20000;-81
2021/11/14 07:45:54;;;;;;;;;;;25.90;42.50;;;;;;5058470;28;20242;-81
2021/11/14 07:48:20;;;;;;;;;;;25.90;42.50;;;;;;5058318;28;19908;-80
2021/11/14 07:50:45;;;;;;;;;;;25.90;42.50;;;;;;5075941;28;20283;-79
2021/11/14 07:53:11;;;;;;;;;;;25.90;42.50;;;;;;5075639;28;19916;-79
2021/11/14 07:55:37;;;;;;;;;;;25.90;42.50;;;;;;5041755;28;19913;-78
2021/11/14 07:58:05;;;;;;;;;;;25.90;42.50;;;;;;5057742;28;19913;-82
2021/11/14 08:00:31;;;;;;;;;;;25.80;42.50;;;;;;5058458;28;20003;-81
2021/11/14 08:02:59;;;;;;;;;;;25.90;42.50;;;;;;5040899;28;20015;-79
2021/11/14 08:05:25;;;;;;;;;;;25.90;42.50;;;;;;5057818;28;19912;-78
2021/11/14 08:07:50;;;;;;;;;;;25.90;42.50;;;;;;5057691;28;19908;-82
2021/11/14 08:10:17;;;;;;;;;;;25.90;42.50;;;;;;5041194;28;19909;-81
2021/11/14 08:12:43;;;;;;;;;;;25.90;42.50;;;;;;5057714;28;19947;-80
2021/11/14 08:15:10;;;;;;;;;;;25.90;42.50;;;;;;5057590;28;19935;-79
2021/11/14 08:17:39;;;;;;;;;;;25.90;42.50;;;;;;5058094;28;19908;-79
2021/11/14 08:20:04;;;;;;;;;;;25.90;42.50;;;;;;5058318;28;19923;-81
2021/11/14 08:22:30;;;;;;;;;;;25.90;42.50;;;;;;5057777;28;19912;-80
2021/11/14 08:24:56;;;;;;;;;;;25.90;42.50;;;;;;5057723;28;19916;-82
2021/11/14 08:27:22;;;;;;;;;;;25.90;42.50;;;;;;5058063;28;19951;-78
2021/11/14 08:29:50;;;;;;;;;;;25.90;42.50;;;;;;5057804;28;19970;-80
2021/11/14 08:32:18;;;;;;;;;;;25.90;42.50;;;;;;5041251;28;19920;-80
2021/11/14 08:34:44;;;;;;;;;;;25.90;42.50;;;;;;5057416;28;19912;-81
2021/11/14 08:37:10;;;;;;;;;;;25.90;42.50;;;;;;5057524;28;20261;-77
2021/11/14 08:39:40;;;;;;;;;;;25.90;42.50;;;;;;5057272;28;20349;-82
2021/11/14 08:42:06;;;;;;;;;;;25.90;42.60;;;;;;5058003;28;19913;-78
2021/11/14 08:44:32;;;;;;;;;;;25.90;42.50;;;;;;5057564;28;20355;-80
2021/11/14 08:46:57;;;;;;;;;;;25.90;42.50;;;;;;5057510;28;19921;-80
2021/11/14 08:49:23;;;;;;;;;;;25.90;42.60;;;;;;5057369;28;19975;-78
2021/11/14 08:51:51;;;;;;;;;;;25.90;42.60;;;;;;5057663;28;19948;-81
2021/11/14 08:54:19;;;;;;;;;;;25.90;42.50;;;;;;5057472;28;19912;-81
2021/11/14 08:56:45;;;;;;;;;;;25.90;42.50;;;;;;5041447;28;19962;-80
2021/11/14 08:59:10;;;;;;;;;;;25.90;42.60;;;;;;5041228;28;19908;-82
2021/11/14 09:01:36;;;;;;;;;;;25.90;42.50;;;;;;5057855;28;19913;-81
2021/11/14 09:04:05;;;;;;;;;;;25.90;42.60;;;;;;5057220;28;20325;-82
2021/11/14 09:06:31;;;;;;;;;;;25.90;42.50;;;;;;5057387;28;20269;-80
2021/11/14 09:09:02;;;;;;;;;;;25.90;42.60;;;;;;5057192;28;19908;-79
2021/11/14 09:11:27;;;;;;;;;;;25.90;42.60;;;;;;5057580;28;19991;-80
2021/11/14 09:13:53;;;;;;;;;;;25.90;42.60;;;;;;5074676;28;19944;-81
2021/11/14 09:16:19;;;;;;;;;;;25.90;42.60;;;;;;5060842;28;19908;-80
2021/11/14 09:18:44;;;;;;;;;;;25.90;42.60;;;;;;5061485;28;19913;-78
2021/11/14 09:21:10;;;;;;;;;;;25.90;42.60;;;;;;5060970;28;19955;-80
2021/11/14 09:23:40;;;;;;;;;;;25.90;42.60;;;;;;5061182;28;19923;-83
2021/11/14 09:26:08;;;;;;;;;;;25.90;42.60;;;;;;5061344;28;20009;-78
2021/11/14 09:28:33;;;;;;;;;;;25.90;42.60;;;;;;5061005;28;19923;-80
2021/11/14 09:30:59;;;;;;;;;;;25.90;42.60;;;;;;5061427;28;19909;-78
2021/11/14 09:33:28;;;;;;;;;;;25.90;42.60;;;;;;5060775;28;20249;-80
2021/11/14 09:35:54;;;;;;;;;;;25.90;42.60;;;;;;5061245;28;19943;-82
2021/11/14 09:38:19;;;;;;;;;;;25.90;42.50;;;;;;5043636;28;19909;-81
2021/11/14 09:40:45;;;;;;;;;;;25.90;42.60;;;;;;5043726;28;19909;-81
2021/11/14 09:43:13;;;;;;;;;;;25.90;42.60;;;;;;5060601;28;19913;-81
2021/11/14 09:45:41;;;;;;;;;;;25.90;42.50;;;;;;5060796;28;20021;-80
2021/11/14 09:48:07;;;;;;;;;;;25.90;42.50;;;;;;5060201;28;19909;-79
2021/11/14 09:50:33;;;;;;;;;;;25.90;42.50;;;;;;5043958;28;19908;-82
2021/11/14 09:52:58;;;;;;;;;;;25.90;42.50;;;;;;5060675;28;19916;-81
2021/11/14 09:55:24;;;;;;;;;;;25.90;42.50;;;;;;5043786;28;19913;-82
2021/11/14 09:57:50;;;;;;;;;;;25.90;42.50;;;;;;5060146;28;19915;-79
2021/11/14 10:00:16;;;;;;;;;;;25.90;42.60;;;;;;5060735;28;20230;-82
2021/11/14 10:02:42;;;;;;;;;;;25.90;42.60;;;;;;5044538;28;19920;-80
2021/11/14 10:05:08;;;;;;;;;;;25.90;42.60;;;;;;5060191;28;19916;-82
2021/11/14 10:07:33;;;;;;;;;;;25.90;42.60;;;;;;5060149;28;20229;-81
2021/11/14 10:10:01;;;;;;;;;;;25.90;42.60;;;;;;5060074;28;19908;-80
2021/11/14 10:12:36;;;;;;;;;;;25.90;42.60;;;;;;5060625;28;19915;-79
2021/11/14 10:15:12;;;;;;;;;;;25.90;42.60;;;;;;5061347;28;20480;-84
2021/11/14 10:17:40;;;;;;;;;;;25.90;42.60;;;;;;5060039;28;20018;-79
2021/11/14 10:20:13;;;;;;;;;;;25.90;42.60;;;;;;5060634;28;19909;-79
2021/11/14 10:22:48;;;;;;;;;;;25.90;42.60;;;;;;5043503;28;19913;-83
2021/11/14 10:25:14;;;;;;;;;;;25.90;42.60;;;;;;5059959;28;19969;-81
2021/11/14 10:27:40;;;;;;;;;;;25.90;42.60;;;;;;5060240;28;19908;-81
2021/11/14 10:30:06;;;;;;;;;;;25.90;42.60;;;;;;5059966;28;20387;-79
2021/11/14 10:32:34;;;;;;;;;;;25.90;42.60;;;;;;5059986;28;19995;-80
2021/11/14 10:35:01;;;;;;;;;;;25.90;42.50;;;;;;5059423;28;19908;-81
2021/11/14 10:37:27;;;;;;;;;;;25.90;42.50;;;;;;5059959;28;20062;-80
2021/11/14 10:39:53;;;;;;;;;;;25.90;42.50;;;;;;5059599;28;19946;-80
2021/11/14 10:42:19;;;;;;;;;;;25.90;42.60;;;;;;5059982;28;19955;-80
2021/11/14 10:44:55;;;;;;;;;;;25.90;42.60;;;;;;5059757;28;20359;-83
2021/11/14 10:47:23;;;;;;;;;;;25.90;42.60;;;;;;5059514;28;19969;-80
2021/11/14 10:49:50;;;;;;;;;;;25.90;42.60;;;;;;5059758;28;19999;-82
2021/11/14 10:52:18;;;;;;;;;;;25.90;42.60;;;;;;5059334;28;19916;-79
2021/11/14 10:54:46;;;;;;;;;;;25.90;42.60;;;;;;5059625;28;19909;-82
2021/11/14 10:57:16;;;;;;;;;;;25.90;42.60;;;;;;5059459;28;19915;-79
2021/11/14 10:59:48;;;;;;;;;;;25.90;42.60;;;;;;5059513;28;20272;-82
2021/11/14 11:02:17;;;;;;;;;;;25.90;42.60;;;;;;5059429;28;19924;-79
2021/11/14 11:04:45;;;;;;;;;;;25.90;42.60;;;;;;5059606;28;19909;-81
2021/11/14 11:07:13;;;;;;;;;;;25.90;42.60;;;;;;5059385;28;19931;-79
2021/11/14 11:09:39;;;;;;;;;;;25.90;42.60;;;;;;5059309;28;20018;-80
2021/11/14 11:12:25;;;;;;;;;;;25.90;42.70;;;;;;5059237;28;19908;-84
2021/11/14 11:14:58;;;;;;;;;;;25.90;42.60;;;;;;5058631;28;20350;-83
2021/11/14 11:17:24;;;;;;;;;;;25.90;42.60;;;;;;5076132;28;19923;-79
2021/11/14 11:19:54;;;;;;;;;;;26.00;42.70;;;;;;5059362;28;19908;-84
2021/11/14 11:22:20;;;;;;;;;;;26.00;42.80;;;;;;5059477;28;19912;-80
2021/11/14 11:24:50;;;;;;;;;;;26.00;42.70;;;;;;5058815;28;20349;-80
2021/11/14 11:27:20;;;;;;;;;;;26.00;43.40;;;;;;5058879;28;19908;-82
2021/11/14 11:29:51;;;;;;;;;;;26.00;42.80;;;;;;5041419;28;19921;-80
2021/11/14 11:32:19;;;;;;;;;;;26.00;42.90;;;;;;5036281;28;19910;-80
2021/11/14 11:34:46;;;;;;;;;;;25.90;42.80;;;;;;5019154;28;19921;-81
2021/11/14 11:37:11;;;;;;;;;;;25.90;42.80;;;;;;5018196;28;19913;-80
2021/11/14 11:39:37;;;;;;;;;;;25.90;42.80;;;;;;5018659;28;19966;-82
2021/11/14 11:42:05;;;;;;;;;;;25.90;43.40;;;;;;5018836;28;19924;-83
2021/11/14 11:44:34;;;;;;;;;;;26.00;42.90;;;;;;5035183;28;20304;-82
2021/11/14 11:47:04;;;;;;;;;;;25.90;42.80;;;;;;5018752;28;19909;-80
2021/11/14 11:49:34;;;;;;;;;;;25.90;42.80;;;;;;5035425;28;19920;-82
2021/11/14 11:52:04;;;;;;;;;;;25.90;42.80;;;;;;5035241;28;19913;-81
2021/11/14 11:54:38;;;;;;;;;;;25.90;42.80;;;;;;5035206;28;19909;-79
2021/11/14 11:57:06;;;;;;;;;;;25.90;42.80;;;;;;5018985;28;19920;-83
2021/11/14 11:59:39;;;;;;;;;;;26.00;42.90;;;;;;5018559;28;19916;-83
2021/11/14 12:02:11;;;;;;;;;;;26.00;42.90;;;;;;5018737;28;20512;-81
2021/11/14 12:04:41;;;;;;;;;;;26.00;42.80;;;;;;5034888;28;19920;-81
2021/11/14 12:07:06;;;;;;;;;;;26.00;43.40;;;;;;5018870;28;19920;-83
2021/11/14 12:09:45;;;;;;;;;;;26.00;42.90;;;;;;5034916;28;19909;-80
2021/11/14 12:12:23;;;;;;;;;;;26.00;42.90;;;;;;5018809;28;19920;-83
2021/11/14 12:15:13;;;;;;;;;;;26.00;43.40;;;;;;5018241;28;19916;-80
2021/11/14 12:17:39;;;;;;;;;;;26.00;42.80;;;;;;5034936;28;19921;-83
2021/11/14 12:20:08;;;;;;;;;;;26.00;42.80;;;;;;5034474;28;19913;-79
2021/11/14 12:23:02;;;;;;;;;;;26.00;42.80;;;;;;5035089;28;19928;-79
2021/11/14 12:25:33;;;;;;;;;;;26.00;42.90;;;;;;5032647;28;19921;-81
2021/11/14 12:28:00;;;;;;;;;;;26.00;42.90;;;;;;5034248;28;19966;-81
2021/11/14 12:30:28;;;;;;;;;;;26.00;42.90;;;;;;5033592;28;19921;-81
2021/11/14 12:32:54;;;;;;;;;;;25.90;42.80;;;;;;5050771;28;19925;-80
2021/11/14 12:35:24;;;;;;;;;;;26.00;42.90;;;;;;5050820;28;19920;-82
2021/11/14 12:37:59;;;;;;;;;;;26.00;42.90;;;;;;5050925;28;19909;-81
2021/11/14 12:40:33;;;;;;;;;;;25.90;42.90;;;;;;5051401;28;19909;-83
2021/11/14 12:43:15;;;;;;;;;;;25.90;42.90;;;;;;5051360;28;19923;-80
2021/11/14 12:45:50;;;;;;;;;;;26.00;43.00;;;;;;5050800;28;19909;-84
2021/11/14 12:48:18;;;;;;;;;;;26.00;42.90;;;;;;5051135;28;19909;-82
2021/11/14 12:51:06;;;;;;;;;;;26.00;43.00;;;;;;5052518;28;19931;-82
2021/11/14 12:53:52;;;;;;;;;;;26.00;42.90;;;;;;5038504;28;19909;-83
2021/11/14 12:56:26;;;;;;;;;;;26.00;42.90;;;;;;5038030;28;19909;-83
2021/11/14 12:58:54;;;;;;;;;;;26.00;42.90;;;;;;5055090;28;19909;-82
2021/11/14 13:01:29;;;;;;;;;;;26.00;42.90;;;;;;5054922;28;19909;-79
2021/11/14 13:03:54;;;;;;;;;;;26.00;42.90;;;;;;5054940;28;20393;-80
2021/11/14 13:06:33;;;;;;;;;;;25.90;42.90;;;;;;5054985;28;20004;-82
2021/11/14 13:09:17;;;;;;;;;;;26.00;43.00;;;;;;5054627;28;19909;-83
2021/11/14 13:11:45;;;;;;;;;;;25.90;42.90;;;;;;5054866;28;19916;-80
2021/11/14 13:14:16;;;;;;;;;;;25.90;43.00;;;;;;5054573;28;20231;-83
2021/11/14 13:16:47;;;;;;;;;;;25.90;43.00;;;;;;5054296;28;19917;-83
2021/11/14 13:19:13;;;;;;;;;;;25.90;43.00;;;;;;5054276;28;19909;-80
2021/11/14 13:21:41;;;;;;;;;;;25.90;43.00;;;;;;5054231;28;20342;-82
2021/11/14 13:24:10;;;;;;;;;;;25.90;43.00;;;;;;5054364;28;19919;-82
2021/11/14 13:26:39;;;;;;;;;;;25.90;43.00;;;;;;5054137;28;19963;-84
2021/11/14 13:29:06;;;;;;;;;;;25.90;43.00;;;;;;5054131;28;19925;-80
2021/11/14 13:31:31;;;;;;;;;;;25.90;43.00;;;;;;5021072;28;19978;-80
2021/11/14 13:34:07;;;;;;;;;;;25.90;43.00;;;;;;5020999;28;20401;-79
2021/11/14 13:36:33;;;;;;;;;;;25.90;43.00;;;;;;5021469;28;20353;-78
2021/11/14 13:39:02;;;;;;;;;;;26.00;43.00;;;;;;5020505;28;19920;-79
2021/11/14 13:41:27;;;;;;;;;;;25.90;42.90;;;;;;5021240;28;20003;-82
2021/11/14 13:43:54;;;;;;;;;;;26.00;43.00;;;;;;5037542;28;19945;-79
2021/11/14 13:46:24;;;;;;;;;;;26.00;43.00;;;;;;5020494;28;19913;-82
2021/11/14 13:48:53;;;;;;;;;;;26.00;42.90;;;;;;5020740;28;19909;-82
2021/11/14 13:51:21;;;;;;;;;;;26.00;43.00;;;;;;5037737;28;19919;-82
2021/11/14 13:53:46;;;;;;;;;;;25.90;42.90;;;;;;5037487;28;19920;-80
2021/11/14 13:56:14;;;;;;;;;;;25.90;42.90;;;;;;5037501;28;19913;-80
2021/11/14 13:58:45;;;;;;;;;;;25.90;42.90;;;;;;5020735;28;19909;-79
2021/11/14 14:01:16;;;;;;;;;;;25.90;42.90;;;;;;5020588;28;19917;-79
2021/11/14 14:03:48;;;;;;;;;;;25.90;43.00;;;;;;5037183;28;19914;-81
2021/11/14 14:06:18;;;;;;;;;;;26.00;43.00;;;;;;5020913;28;19920;-79
2021/11/14 14:08:44;;;;;;;;;;;25.90;43.00;;;;;;5021264;28;19964;-80
2021/11/14 14:11:10;;;;;;;;;;;25.90;43.00;;;;;;5020312;28;19937;-79
2021/11/14 14:13:36;;;;;;;;;;;25.90;42.90;;;;;;5036776;28;19916;-80
2021/11/14 14:16:02;;;;;;;;;;;26.00;43.00;;;;;;5020388;28;19909;-80
2021/11/14 14:18:28;;;;;;;;;;;26.00;43.00;;;;;;5037031;28;19916;-80
2021/11/14 14:20:56;;;;;;;;;;;26.00;43.00;;;;;;5037200;28;20387;-81